createdAt,value
2018-09-06T00:00:11.718Z,99.99
2018-09-06T00:01:11.628Z,99.99
2018-09-06T00:02:11.523Z,99.99
2018-09-06T00:03:11.434Z,99.99
2018-09-06T00:04:11.329Z,99.99
2018-09-06T00:05:11.238Z,99.99
2018-09-06T00:06:11.134Z,99.99
2018-09-06T00:07:11.044Z,99.99
2018-09-06T00:08:10.941Z,99.99
2018-09-06T00:09:10.849Z,99.99
2018-09-06T00:10:10.747Z,99.99
2018-09-06T00:11:10.676Z,99.99
2018-09-06T00:12:10.552Z,99.99
2018-09-06T00:13:10.462Z,99.99
2018-09-06T00:14:10.358Z,99.99
2018-09-06T00:15:10.267Z,99.99
2018-09-06T00:16:10.164Z,99.99
2018-09-06T00:17:10.062Z,99.99
2018-09-06T00:18:09.970Z,99.99
2018-09-06T00:19:09.867Z,99.99
2018-09-06T00:20:09.782Z,99.99
2018-09-06T00:21:09.674Z,99.99
2018-09-06T00:22:09.583Z,99.99
2018-09-06T00:23:09.478Z,99.99
2018-09-06T00:24:09.388Z,99.99
2018-09-06T00:25:09.285Z,99.99
2018-09-06T00:26:09.193Z,99.99
2018-09-06T00:27:09.092Z,99.99
2018-09-06T00:28:08.999Z,99.99
2018-09-06T00:29:08.896Z,99.99
2018-09-06T00:30:08.794Z,99.99
2018-09-06T00:31:08.704Z,99.99
2018-09-06T00:32:08.600Z,99.99
2018-09-06T00:33:08.508Z,99.99
2018-09-06T00:34:08.405Z,99.99
2018-09-06T00:35:08.314Z,99.99
2018-09-06T00:36:08.213Z,99.99
2018-09-06T00:37:08.120Z,99.99
2018-09-06T00:38:08.017Z,99.99
2018-09-06T00:39:07.926Z,99.99
2018-09-06T00:40:07.822Z,99.99
2018-09-06T00:41:07.731Z,99.99
2018-09-06T00:42:07.628Z,99.99
2018-09-06T00:43:07.527Z,99.99
2018-09-06T00:44:07.434Z,99.99
2018-09-06T00:45:07.332Z,99.99
2018-09-06T00:46:07.240Z,99.99
2018-09-06T00:47:07.136Z,99.99
2018-09-06T00:48:07.045Z,99.99
2018-09-06T00:49:06.940Z,99.99
2018-09-06T00:50:06.849Z,99.99
2018-09-06T00:51:06.745Z,99.99
2018-09-06T00:52:06.656Z,99.99
2018-09-06T00:53:06.551Z,99.99
2018-09-06T00:54:06.449Z,99.99
2018-09-06T00:55:06.373Z,99.99
2018-09-06T00:56:06.254Z,99.99
2018-09-06T00:57:06.167Z,99.99
2018-09-06T00:58:06.072Z,99.99
2018-09-06T00:59:05.969Z,99.99
2018-09-06T01:00:05.866Z,99.99
2018-09-06T01:01:05.780Z,99.99
2018-09-06T01:02:05.673Z,99.99
2018-09-06T01:03:05.580Z,99.99
2018-09-06T01:04:05.478Z,99.99
2018-09-06T01:05:05.376Z,99.99
2018-09-06T01:06:05.285Z,99.99
2018-09-06T01:07:05.182Z,99.99
2018-09-06T01:08:05.090Z,99.99
2018-09-06T01:09:04.988Z,99.99
2018-09-06T01:10:04.896Z,99.99
2018-09-06T01:11:04.793Z,99.99
2018-09-06T01:12:04.702Z,99.99
2018-09-06T01:13:04.598Z,99.99
2018-09-06T01:14:04.496Z,99.99
2018-09-06T01:15:04.408Z,99.99
2018-09-06T01:16:04.302Z,99.99
2018-09-06T01:17:04.210Z,99.99
2018-09-06T01:18:04.106Z,99.99
2018-09-06T01:19:04.017Z,99.99
2018-09-06T01:20:03.913Z,99.99
2018-09-06T01:21:03.821Z,99.99
2018-09-06T01:22:03.718Z,99.99
2018-09-06T01:23:03.615Z,99.99
2018-09-06T01:24:03.525Z,99.99
2018-09-06T01:25:03.422Z,99.99
2018-09-06T01:26:03.330Z,99.99
2018-09-06T01:27:03.227Z,99.99
2018-09-06T01:28:03.137Z,99.99
2018-09-06T01:29:03.034Z,99.99
2018-09-06T01:30:02.930Z,99.99
2018-09-06T01:31:02.838Z,99.99
2018-09-06T01:32:02.735Z,99.99
2018-09-06T01:33:02.645Z,99.99
2018-09-06T01:34:02.543Z,99.99
2018-09-06T01:35:02.667Z,99.99
2018-09-06T01:36:02.347Z,99.99
2018-09-06T01:37:02.261Z,99.99
2018-09-06T01:38:02.154Z,99.99
2018-09-06T01:39:02.054Z,99.99
2018-09-06T01:40:01.959Z,99.99
2018-09-06T01:41:01.858Z,99.99
2018-09-06T01:42:01.765Z,99.99
2018-09-06T01:43:01.662Z,99.99
2018-09-06T01:44:01.559Z,99.99
2018-09-06T01:45:01.467Z,99.99
2018-09-06T01:46:01.364Z,99.99
2018-09-06T01:47:01.274Z,99.99
2018-09-06T01:48:01.170Z,99.99
2018-09-06T01:49:01.079Z,99.99
2018-09-06T01:50:00.975Z,99.99
2018-09-06T01:51:00.880Z,99.99
2018-09-06T01:52:00.783Z,99.99
2018-09-06T01:53:00.680Z,99.99
2018-09-06T01:54:00.633Z,99.99
2018-09-06T01:55:00.497Z,99.99
2018-09-06T01:56:00.399Z,99.99
2018-09-06T01:57:00.291Z,99.99
2018-09-06T01:58:00.187Z,99.99
2018-09-06T01:59:00.096Z,99.99
2018-09-06T01:59:59.993Z,99.99
2018-09-06T02:00:59.903Z,99.99
2018-09-06T02:01:59.800Z,99.99
2018-09-06T02:02:59.708Z,99.99
2018-09-06T02:03:59.605Z,99.99
2018-09-06T02:04:59.501Z,99.99
2018-09-06T02:05:59.411Z,99.99
2018-09-06T02:06:59.308Z,99.99
2018-09-06T02:07:59.216Z,99.99
2018-09-06T02:08:59.113Z,99.99
2018-09-06T02:09:59.010Z,99.99
2018-09-06T02:10:59.219Z,99.99
2018-09-06T02:11:58.817Z,99.99
2018-09-06T02:12:58.726Z,99.99
2018-09-06T02:13:58.622Z,99.99
2018-09-06T02:14:58.520Z,99.99
2018-09-06T02:15:58.428Z,99.99
2018-09-06T02:16:58.326Z,99.99
2018-09-06T02:17:58.233Z,99.99
2018-09-06T02:18:58.133Z,99.99
2018-09-06T02:19:58.040Z,99.99
2018-09-06T02:20:57.936Z,99.99
2018-09-06T02:21:57.836Z,99.99
2018-09-06T02:22:57.742Z,99.99
2018-09-06T02:23:57.639Z,99.99
2018-09-06T02:24:57.549Z,99.99
2018-09-06T02:25:57.445Z,99.99
2018-09-06T02:26:57.367Z,99.99
2018-09-06T02:27:57.250Z,99.99
2018-09-06T02:28:57.150Z,99.99
2018-09-06T02:29:57.058Z,99.99
2018-09-06T02:30:57.004Z,99.99
2018-09-06T02:31:56.862Z,99.99
2018-09-06T02:32:56.760Z,99.99
2018-09-06T02:33:56.657Z,99.99
2018-09-06T02:34:56.565Z,99.99
2018-09-06T02:35:56.462Z,99.99
2018-09-06T02:36:56.371Z,99.99
2018-09-06T02:37:56.267Z,99.99
2018-09-06T02:38:56.178Z,99.99
2018-09-06T02:39:56.075Z,99.99
2018-09-06T02:40:55.970Z,99.99
2018-09-06T02:41:55.913Z,99.99
2018-09-06T02:42:55.776Z,99.99
2018-09-06T02:43:55.687Z,99.99
2018-09-06T02:44:55.581Z,99.99
2018-09-06T02:45:55.779Z,99.99
2018-09-06T02:46:55.386Z,99.99
2018-09-06T02:47:55.298Z,99.99
2018-09-06T02:48:55.194Z,99.99
2018-09-06T02:49:55.091Z,99.99
2018-09-06T02:50:54.989Z,99.99
2018-09-06T02:51:54.902Z,99.99
2018-09-06T02:52:54.795Z,99.99
2018-09-06T02:53:54.769Z,99.99
2018-09-06T02:54:54.603Z,99.99
2018-09-06T02:55:54.507Z,99.99
2018-09-06T02:56:54.404Z,99.99
2018-09-06T02:57:54.300Z,99.99
2018-09-06T02:58:54.211Z,99.99
2018-09-06T02:59:54.107Z,99.99
2018-09-06T03:00:54.016Z,99.99
2018-09-06T03:01:53.913Z,99.99
2018-09-06T03:02:53.810Z,99.99
2018-09-06T03:03:53.719Z,99.99
2018-09-06T03:04:53.616Z,99.99
2018-09-06T03:05:53.776Z,99.99
2018-09-06T03:06:53.424Z,99.99
2018-09-06T03:07:53.320Z,99.99
2018-09-06T03:08:53.227Z,99.99
2018-09-06T03:09:53.125Z,99.99
2018-09-06T03:10:53.033Z,99.99
2018-09-06T03:11:52.929Z,99.99
2018-09-06T03:12:52.839Z,99.99
2018-09-06T03:13:52.736Z,99.99
2018-09-06T03:14:52.634Z,99.99
2018-09-06T03:15:52.541Z,99.99
2018-09-06T03:16:52.438Z,99.99
2018-09-06T03:17:52.352Z,99.99
2018-09-06T03:18:52.249Z,99.99
2018-09-06T03:19:52.142Z,99.99
2018-09-06T03:20:52.054Z,99.99
2018-09-06T03:21:51.948Z,99.99
2018-09-06T03:22:51.857Z,99.99
2018-09-06T03:23:51.752Z,99.99
2018-09-06T03:24:51.661Z,99.99
2018-09-06T03:25:51.558Z,99.99
2018-09-06T03:26:51.455Z,99.99
2018-09-06T03:27:51.369Z,99.99
2018-09-06T03:28:51.263Z,99.99
2018-09-06T03:29:51.159Z,99.99
2018-09-06T03:30:51.068Z,99.99
2018-09-06T03:31:50.977Z,99.99
2018-09-06T03:32:50.874Z,99.99
2018-09-06T03:33:50.785Z,99.99
2018-09-06T03:34:50.678Z,99.99
2018-09-06T03:35:50.593Z,99.99
2018-09-06T03:36:50.478Z,99.99
2018-09-06T03:37:50.383Z,99.99
2018-09-06T03:38:50.278Z,99.99
2018-09-06T03:39:50.188Z,99.99
2018-09-06T03:40:50.084Z,99.99
2018-09-06T03:41:49.981Z,99.99
2018-09-06T03:42:49.891Z,99.99
2018-09-06T03:43:49.790Z,99.99
2018-09-06T03:44:49.696Z,99.99
2018-09-06T03:45:49.592Z,99.99
2018-09-06T03:46:49.490Z,99.99
2018-09-06T03:47:49.399Z,99.99
2018-09-06T03:48:49.301Z,99.99
2018-09-06T03:49:49.204Z,99.99
2018-09-06T03:50:49.351Z,99.99
2018-09-06T03:51:49.000Z,99.99
2018-09-06T03:52:48.908Z,99.99
2018-09-06T03:53:48.804Z,99.99
2018-09-06T03:54:48.714Z,99.99
2018-09-06T03:55:48.609Z,99.99
2018-09-06T03:56:48.520Z,99.99
2018-09-06T03:57:48.419Z,99.99
2018-09-06T03:58:48.313Z,99.99
2018-09-06T03:59:48.222Z,99.99
2018-09-06T04:00:48.119Z,99.99
2018-09-06T04:01:48.028Z,99.99
2018-09-06T04:02:47.924Z,99.99
2018-09-06T04:03:47.825Z,99.99
2018-09-06T04:04:47.729Z,99.99
2018-09-06T04:05:47.626Z,99.99
2018-09-06T04:06:47.537Z,99.99
2018-09-06T04:07:47.434Z,99.99
2018-09-06T04:08:47.330Z,99.99
2018-09-06T04:09:47.238Z,99.99
2018-09-06T04:10:47.135Z,99.99
2018-09-06T04:11:47.046Z,99.99
2018-09-06T04:12:46.942Z,99.99
2018-09-06T04:13:46.841Z,99.99
2018-09-06T04:14:46.747Z,99.99
2018-09-06T04:15:46.646Z,99.99
2018-09-06T04:16:46.553Z,99.99
2018-09-06T04:17:46.451Z,99.99
2018-09-06T04:18:46.349Z,99.99
2018-09-06T04:19:46.256Z,99.99
2018-09-06T04:20:46.153Z,99.99
2018-09-06T04:21:46.065Z,99.99
2018-09-06T04:22:45.960Z,99.99
2018-09-06T04:23:45.867Z,99.99
2018-09-06T04:24:45.764Z,99.99
2018-09-06T04:25:45.661Z,99.99
2018-09-06T04:26:45.572Z,99.99
2018-09-06T04:27:45.467Z,99.99
2018-09-06T04:28:45.375Z,99.99
2018-09-06T04:29:45.272Z,99.99
2018-09-06T04:30:45.170Z,99.99
2018-09-06T04:31:45.079Z,99.99
2018-09-06T04:32:44.976Z,99.99
2018-09-06T04:33:44.884Z,99.99
2018-09-06T04:34:44.780Z,99.99
2018-09-06T04:35:44.692Z,99.99
2018-09-06T04:36:44.588Z,99.99
2018-09-06T04:37:44.484Z,99.99
2018-09-06T04:38:44.392Z,99.99
2018-09-06T04:39:44.290Z,99.99
2018-09-06T04:40:44.200Z,99.99
2018-09-06T04:41:44.096Z,99.99
2018-09-06T04:42:43.993Z,99.99
2018-09-06T04:43:43.936Z,99.99
2018-09-06T04:44:43.797Z,99.99
2018-09-06T04:45:43.707Z,99.99
2018-09-06T04:46:43.605Z,99.99
2018-09-06T04:47:43.514Z,99.99
2018-09-06T04:48:43.425Z,99.99
2018-09-06T04:49:43.345Z,99.99
2018-09-06T04:50:43.217Z,99.99
2018-09-06T04:51:43.113Z,99.99
2018-09-06T04:52:43.021Z,99.99
2018-09-06T04:53:42.918Z,99.99
2018-09-06T04:54:42.816Z,99.99
2018-09-06T04:55:42.726Z,99.99
2018-09-06T04:56:42.621Z,99.99
2018-09-06T04:57:42.536Z,99.99
2018-09-06T04:58:42.427Z,99.99
2018-09-06T04:59:42.337Z,99.99
2018-09-06T05:00:42.233Z,99.99
2018-09-06T05:01:42.131Z,99.99
2018-09-06T05:02:42.038Z,99.99
2018-09-06T05:03:41.936Z,99.99
2018-09-06T05:04:41.846Z,99.99
2018-09-06T05:05:41.744Z,99.99
2018-09-06T05:06:41.651Z,99.99
2018-09-06T05:07:41.550Z,99.99
2018-09-06T05:08:41.457Z,99.99
2018-09-06T05:09:41.357Z,99.99
2018-09-06T05:10:41.261Z,99.99
2018-09-06T05:11:41.159Z,99.99
2018-09-06T05:12:41.068Z,99.99
2018-09-06T05:13:40.965Z,99.99
2018-09-06T05:14:40.873Z,99.99
2018-09-06T05:15:40.772Z,99.99
2018-09-06T05:16:40.679Z,99.99
2018-09-06T05:17:40.576Z,99.99
2018-09-06T05:18:40.487Z,99.99
2018-09-06T05:19:40.382Z,99.99
2018-09-06T05:20:40.293Z,99.99
2018-09-06T05:21:40.189Z,99.99
2018-09-06T05:22:40.097Z,99.99
2018-09-06T05:23:40.007Z,99.99
2018-09-06T05:24:39.904Z,99.99
2018-09-06T05:25:39.799Z,99.99
2018-09-06T05:26:39.709Z,99.99
2018-09-06T05:27:39.607Z,99.99
2018-09-06T05:28:39.516Z,99.99
2018-09-06T05:29:39.412Z,99.99
2018-09-06T05:30:39.325Z,99.99
2018-09-06T05:31:39.218Z,99.99
2018-09-06T05:32:39.128Z,99.99
2018-09-06T05:33:39.024Z,99.99
2018-09-06T05:34:38.932Z,99.99
2018-09-06T05:35:38.829Z,99.99
2018-09-06T05:36:38.800Z,99.99
2018-09-06T05:37:38.636Z,99.99
2018-09-06T05:38:38.544Z,99.99
2018-09-06T05:39:38.441Z,99.99
2018-09-06T05:40:38.351Z,99.99
2018-09-06T05:41:38.248Z,99.99
2018-09-06T05:42:38.156Z,99.99
2018-09-06T05:43:38.052Z,99.99
2018-09-06T05:44:37.963Z,99.99
2018-09-06T05:45:37.860Z,99.99
2018-09-06T05:46:37.769Z,99.99
2018-09-06T05:47:37.678Z,99.99
2018-09-06T05:48:37.575Z,99.99
2018-09-06T05:49:37.474Z,99.99
2018-09-06T05:50:37.379Z,99.99
2018-09-06T05:51:37.277Z,99.99
2018-09-06T05:52:37.193Z,99.99
2018-09-06T05:53:37.083Z,99.99
2018-09-06T05:54:36.992Z,99.99
2018-09-06T05:55:36.901Z,99.99
2018-09-06T05:56:36.805Z,99.99
2018-09-06T05:57:36.694Z,99.99
2018-09-06T05:58:36.602Z,99.99
2018-09-06T05:59:36.547Z,99.99
2018-09-06T06:00:36.413Z,99.99
2018-09-06T06:01:36.306Z,99.99
2018-09-06T06:02:36.214Z,99.99
2018-09-06T06:03:36.111Z,99.99
2018-09-06T06:04:36.022Z,99.99
2018-09-06T06:05:35.921Z,99.99
2018-09-06T06:06:35.828Z,97.38
2018-09-06T06:07:35.736Z,96.37
2018-09-06T06:08:35.634Z,95.07
2018-09-06T06:09:35.543Z,92.99
2018-09-06T06:10:35.439Z,91.64
2018-09-06T06:11:35.349Z,91.20
2018-09-06T06:12:35.245Z,89.09
2018-09-06T06:13:35.154Z,89.33
2018-09-06T06:14:35.064Z,89.09
2018-09-06T06:15:34.960Z,89.09
2018-09-06T06:16:34.869Z,89.09
2018-09-06T06:17:34.767Z,88.70
2018-09-06T06:18:34.676Z,88.22
2018-09-06T06:19:34.588Z,87.68
2018-09-06T06:20:34.743Z,86.72
2018-09-06T06:21:34.395Z,86.52
2018-09-06T06:22:34.299Z,86.62
2018-09-06T06:23:34.209Z,86.66
2018-09-06T06:24:34.106Z,85.70
2018-09-06T06:25:34.014Z,85.06
2018-09-06T06:26:33.927Z,84.53
2018-09-06T06:27:33.833Z,83.27
2018-09-06T06:28:33.730Z,83.19
2018-09-06T06:29:33.639Z,84.41
2018-09-06T06:30:33.547Z,85.66
2018-09-06T06:31:33.457Z,85.56
2018-09-06T06:32:33.354Z,85.66
2018-09-06T06:33:33.262Z,85.81
2018-09-06T06:34:33.172Z,86.73
2018-09-06T06:35:33.081Z,87.70
2018-09-06T06:36:32.991Z,87.79
2018-09-06T06:37:32.887Z,88.32
2018-09-06T06:38:32.796Z,88.90
2018-09-06T06:39:32.706Z,88.37
2018-09-06T06:40:32.868Z,88.27
2018-09-06T06:41:32.513Z,87.64
2018-09-06T06:42:32.422Z,87.60
2018-09-06T06:43:32.328Z,88.12
2018-09-06T06:44:32.242Z,86.87
2018-09-06T06:45:32.147Z,86.19
2018-09-06T06:46:32.044Z,85.94
2018-09-06T06:47:31.954Z,84.93
2018-09-06T06:48:31.862Z,83.48
2018-09-06T06:49:31.773Z,84.50
2018-09-06T06:50:31.759Z,84.50
2018-09-06T06:51:31.577Z,85.17
2018-09-06T06:52:31.488Z,84.64
2018-09-06T06:53:31.401Z,83.62
2018-09-06T06:54:31.311Z,83.87
2018-09-06T06:55:31.214Z,84.74
2018-09-06T06:56:31.111Z,84.01
2018-09-06T06:57:31.021Z,83.48
2018-09-06T06:58:30.934Z,83.63
2018-09-06T06:59:30.851Z,83.48
2018-09-06T07:00:30.747Z,83.44
2018-09-06T07:01:30.644Z,84.01
2018-09-06T07:02:30.559Z,84.50
2018-09-06T07:03:30.462Z,84.50
2018-09-06T07:04:30.429Z,84.79
2018-09-06T07:05:30.281Z,84.31
2018-09-06T07:06:30.179Z,84.11
2018-09-06T07:07:30.089Z,84.27
2018-09-06T07:08:29.996Z,84.65
2018-09-06T07:09:29.905Z,85.37
2018-09-06T07:10:29.814Z,84.31
2018-09-06T07:11:29.725Z,84.11
2018-09-06T07:12:29.621Z,83.73
2018-09-06T07:13:29.532Z,84.11
2018-09-06T07:14:29.440Z,84.36
2018-09-06T07:15:29.348Z,84.36
2018-09-06T07:16:29.264Z,84.99
2018-09-06T07:17:29.154Z,86.11
2018-09-06T07:18:29.222Z,87.60
2018-09-06T07:19:28.973Z,88.09
2018-09-06T07:20:29.133Z,88.81
2018-09-06T07:21:28.793Z,89.87
2018-09-06T07:22:28.688Z,90.26
2018-09-06T07:23:28.596Z,90.64
2018-09-06T07:24:28.506Z,91.03
2018-09-06T07:25:28.403Z,90.64
2018-09-06T07:26:28.312Z,91.31
2018-09-06T07:27:28.224Z,91.80
2018-09-06T07:28:28.122Z,91.41
2018-09-06T07:29:28.028Z,91.60
2018-09-06T07:30:27.997Z,91.70
2018-09-06T07:31:27.834Z,91.99
2018-09-06T07:32:27.741Z,91.51
2018-09-06T07:33:27.653Z,91.70
2018-09-06T07:34:27.549Z,91.70
2018-09-06T07:35:27.458Z,92.18
2018-09-06T07:36:27.367Z,92.28
2018-09-06T07:37:27.266Z,91.51
2018-09-06T07:38:27.171Z,91.41
2018-09-06T07:39:27.082Z,91.41
2018-09-06T07:40:26.979Z,91.27
2018-09-06T07:41:26.972Z,90.83
2018-09-06T07:42:26.785Z,90.78
2018-09-06T07:43:26.698Z,90.30
2018-09-06T07:44:26.602Z,89.92
2018-09-06T07:45:26.499Z,90.59
2018-09-06T07:46:26.409Z,90.16
2018-09-06T07:47:26.317Z,90.93
2018-09-06T07:48:26.214Z,91.31
2018-09-06T07:49:26.125Z,91.51
2018-09-06T07:50:26.021Z,91.60
2018-09-06T07:51:25.929Z,91.31
2018-09-06T07:52:25.875Z,91.51
2018-09-06T07:53:25.737Z,91.70
2018-09-06T07:54:25.644Z,91.22
2018-09-06T07:55:25.544Z,91.13
2018-09-06T07:56:25.451Z,91.17
2018-09-06T07:57:25.359Z,90.88
2018-09-06T07:58:25.256Z,89.92
2018-09-06T07:59:25.166Z,89.53
2018-09-06T08:00:25.067Z,89.53
2018-09-06T08:01:25.003Z,89.92
2018-09-06T08:02:24.881Z,89.24
2018-09-06T08:03:24.779Z,89.15
2018-09-06T08:04:24.690Z,89.39
2018-09-06T08:05:24.583Z,89.19
2018-09-06T08:06:24.493Z,89.29
2018-09-06T08:07:24.402Z,88.90
2018-09-06T08:08:24.313Z,88.46
2018-09-06T08:09:24.209Z,88.23
2018-09-06T08:10:24.107Z,88.13
2018-09-06T08:11:24.016Z,88.42
2018-09-06T08:12:23.923Z,87.50
2018-09-06T08:13:23.820Z,87.65
2018-09-06T08:14:23.728Z,87.70
2018-09-06T08:15:23.626Z,87.70
2018-09-06T08:16:23.535Z,87.50
2018-09-06T08:17:23.443Z,87.79
2018-09-06T08:18:23.344Z,87.21
2018-09-06T08:19:23.250Z,86.44
2018-09-06T08:20:23.159Z,87.21
2018-09-06T08:21:23.058Z,87.30
2018-09-06T08:22:22.965Z,86.63
2018-09-06T08:23:22.861Z,86.73
2018-09-06T08:24:22.869Z,86.63
2018-09-06T08:25:22.680Z,86.58
2018-09-06T08:26:22.576Z,86.25
2018-09-06T08:27:22.486Z,86.19
2018-09-06T08:28:22.394Z,85.61
2018-09-06T08:29:22.293Z,85.33
2018-09-06T08:30:22.200Z,85.37
2018-09-06T08:31:22.163Z,84.79
2018-09-06T08:32:22.006Z,84.59
2018-09-06T08:33:21.916Z,84.50
2018-09-06T08:34:21.811Z,84.69
2018-09-06T08:35:21.724Z,83.96
2018-09-06T08:36:21.630Z,84.21
2018-09-06T08:37:21.528Z,83.92
2018-09-06T08:38:21.438Z,84.01
2018-09-06T08:39:21.345Z,84.31
2018-09-06T08:40:21.241Z,84.59
2018-09-06T08:41:21.152Z,83.92
2018-09-06T08:42:21.060Z,84.17
2018-09-06T08:43:20.957Z,84.46
2018-09-06T08:44:20.867Z,84.41
2018-09-06T08:45:20.825Z,84.79
2018-09-06T08:46:20.672Z,84.07
2018-09-06T08:47:20.581Z,84.41
2018-09-06T08:48:20.479Z,84.31
2018-09-06T08:49:20.388Z,83.63
2018-09-06T08:50:20.297Z,83.00
2018-09-06T08:51:20.193Z,82.81
2018-09-06T08:52:20.131Z,81.84
2018-09-06T08:53:20.012Z,81.16
2018-09-06T08:54:19.909Z,81.93
2018-09-06T08:55:19.818Z,81.35
2018-09-06T08:56:19.728Z,81.11
2018-09-06T08:57:19.628Z,81.49
2018-09-06T08:58:19.552Z,81.30
2018-09-06T08:59:19.443Z,81.26
2018-09-06T09:00:19.340Z,80.62
2018-09-06T09:01:19.247Z,80.30
2018-09-06T09:02:19.247Z,80.00
2018-09-06T09:03:19.091Z,80.00
2018-09-06T09:04:18.962Z,80.14
2018-09-06T09:05:18.872Z,80.39
2018-09-06T09:06:18.770Z,80.20
2018-09-06T09:07:18.680Z,80.30
2018-09-06T09:08:18.637Z,80.39
2018-09-06T09:09:18.496Z,80.43
2018-09-06T09:10:18.393Z,80.10
2018-09-06T09:11:18.303Z,79.75
2018-09-06T09:12:18.252Z,79.37
2018-09-06T09:13:18.163Z,79.56
2018-09-06T09:14:18.018Z,79.37
2018-09-06T09:15:17.916Z,79.37
2018-09-06T09:16:17.824Z,79.47
2018-09-06T09:17:17.734Z,79.47
2018-09-06T09:18:17.703Z,79.62
2018-09-06T09:19:17.538Z,79.75
2018-09-06T09:20:17.448Z,80.33
2018-09-06T09:21:17.357Z,79.47
2018-09-06T09:22:17.311Z,79.31
2018-09-06T09:23:17.163Z,78.21
2018-09-06T09:24:17.071Z,78.31
2018-09-06T09:25:16.968Z,78.59
2018-09-06T09:26:16.878Z,78.41
2018-09-06T09:27:16.787Z,78.79
2018-09-06T09:28:16.684Z,78.54
2018-09-06T09:29:16.593Z,78.58
2018-09-06T09:30:16.501Z,77.42
2018-09-06T09:31:16.400Z,77.03
2018-09-06T09:32:16.309Z,76.93
2018-09-06T09:33:16.218Z,76.39
2018-09-06T09:34:16.128Z,76.39
2018-09-06T09:35:16.023Z,76.14
2018-09-06T09:36:15.932Z,76.16
2018-09-06T09:37:15.843Z,76.35
2018-09-06T09:38:15.740Z,76.90
2018-09-06T09:39:15.648Z,77.22
2018-09-06T09:40:15.557Z,76.74
2018-09-06T09:41:15.455Z,76.61
2018-09-06T09:42:15.362Z,76.51
2018-09-06T09:43:15.276Z,77.19
2018-09-06T09:44:15.181Z,76.90
2018-09-06T09:45:15.078Z,77.19
2018-09-06T09:48:12.282Z,77.09
2018-09-06T09:49:12.189Z,77.09
2018-09-06T09:50:51.185Z,77.00
2018-09-06T09:51:51.094Z,76.74
2018-09-06T09:52:50.991Z,76.80
2018-09-06T09:53:50.899Z,77.19
2018-09-06T09:54:50.812Z,77.28
2018-09-06T09:55:50.706Z,77.19
2018-09-06T09:56:50.619Z,76.74
2018-09-06T09:57:50.524Z,76.42
2018-09-06T09:58:50.432Z,76.32
2018-09-06T09:59:50.332Z,76.51
2018-09-06T10:00:50.244Z,77.28
2018-09-06T10:01:50.148Z,76.70
2018-09-06T10:02:50.046Z,77.09
2018-09-06T10:04:29.053Z,77.22
2018-09-06T10:05:28.962Z,77.32
2018-09-06T10:06:28.893Z,76.74
2018-09-06T10:07:28.767Z,75.43
2018-09-06T10:08:28.676Z,75.62
2018-09-06T10:09:28.575Z,75.71
2018-09-06T10:10:28.482Z,75.13
2018-09-06T10:11:28.391Z,75.39
2018-09-06T10:12:28.301Z,75.78
2018-09-06T10:13:28.197Z,76.01
2018-09-06T10:14:28.105Z,75.33
2018-09-06T10:15:28.016Z,75.00
2018-09-06T10:16:27.924Z,75.20
2018-09-06T10:17:27.820Z,75.91
2018-09-06T10:18:27.732Z,75.13
2018-09-06T10:19:27.639Z,75.17
2018-09-06T10:20:27.538Z,74.40
2018-09-06T10:21:27.446Z,73.82
2018-09-06T10:22:27.356Z,74.36
2018-09-06T10:23:27.264Z,74.27
2018-09-06T10:24:27.160Z,74.32
2018-09-06T10:25:27.069Z,75.10
2018-09-06T10:26:26.979Z,75.10
2018-09-06T10:27:26.890Z,74.94
2018-09-06T10:28:26.797Z,74.85
2018-09-06T10:29:26.694Z,74.36
2018-09-06T10:30:26.602Z,74.42
2018-09-06T10:31:26.513Z,74.32
2018-09-06T10:32:26.410Z,75.10
2018-09-06T10:33:26.318Z,74.36
2018-09-06T10:34:26.227Z,74.55
2018-09-06T10:35:26.160Z,74.65
2018-09-06T10:36:26.032Z,74.69
2018-09-06T10:37:25.963Z,74.59
2018-09-06T10:38:25.851Z,73.24
2018-09-06T10:39:25.842Z,73.14
2018-09-06T10:40:25.707Z,73.33
2018-09-06T10:41:25.566Z,74.01
2018-09-06T10:42:25.476Z,73.63
2018-09-06T10:43:25.385Z,73.53
2018-09-06T10:44:25.299Z,73.33
2018-09-06T10:45:25.191Z,73.18
2018-09-06T10:46:25.099Z,72.40
2018-09-06T10:47:25.009Z,72.79
2018-09-06T10:48:24.906Z,72.02
2018-09-06T10:49:24.814Z,72.75
2018-09-06T10:50:24.725Z,72.56
2018-09-06T10:51:24.633Z,71.98
2018-09-06T10:52:24.543Z,71.82
2018-09-06T10:53:24.439Z,71.82
2018-09-06T10:54:24.349Z,71.76
2018-09-06T10:55:24.260Z,71.18
2018-09-06T10:56:24.167Z,69.82
2018-09-06T10:57:24.065Z,69.79
2018-09-06T10:58:23.975Z,69.82
2018-09-06T10:59:23.882Z,69.73
2018-09-06T11:00:23.792Z,69.05
2018-09-06T11:01:23.700Z,68.27
2018-09-06T11:02:23.599Z,67.37
2018-09-06T11:03:23.508Z,67.76
2018-09-06T11:04:23.416Z,68.33
2018-09-06T11:05:23.325Z,69.50
2018-09-06T11:06:23.233Z,69.95
2018-09-06T11:07:23.133Z,70.08
2018-09-06T11:08:23.091Z,70.27
2018-09-06T11:09:22.951Z,69.98
2018-09-06T11:10:22.858Z,69.43
2018-09-06T11:11:22.767Z,68.85
2018-09-06T11:12:22.681Z,69.31
2018-09-06T11:13:22.575Z,69.01
2018-09-06T11:14:22.483Z,69.01
2018-09-06T11:15:22.392Z,69.69
2018-09-06T11:16:22.301Z,69.59
2018-09-06T11:17:22.211Z,69.89
2018-09-06T11:18:22.111Z,70.89
2018-09-06T11:19:22.016Z,69.43
2018-09-06T11:20:21.925Z,69.43
2018-09-06T11:21:21.938Z,69.34
2018-09-06T11:22:21.826Z,68.66
2018-09-06T11:23:21.641Z,68.91
2018-09-06T11:24:21.562Z,69.34
2018-09-06T11:25:21.459Z,67.30
2018-09-06T11:26:21.368Z,67.53
2018-09-06T11:27:21.295Z,67.44
2018-09-06T11:28:21.189Z,67.63
2018-09-06T11:29:21.085Z,66.27
2018-09-06T11:30:20.992Z,66.56
2018-09-06T11:31:20.901Z,66.02
2018-09-06T11:32:20.811Z,65.43
2018-09-06T11:33:20.796Z,66.60
2018-09-06T11:34:20.629Z,67.37
2018-09-06T11:35:20.526Z,66.69
2018-09-06T11:36:20.434Z,67.27
2018-09-06T11:37:20.345Z,66.63
2018-09-06T11:38:20.253Z,65.92
2018-09-06T11:39:20.166Z,65.85
2018-09-06T11:40:20.088Z,65.27
2018-09-06T11:41:19.981Z,64.88
2018-09-06T11:42:19.890Z,65.14
2018-09-06T11:43:19.786Z,66.11
2018-09-06T11:44:19.707Z,65.24
2018-09-06T11:45:19.604Z,65.72
2018-09-06T11:46:19.515Z,66.24
2018-09-06T11:47:19.487Z,65.72
2018-09-06T11:48:19.344Z,65.92
2018-09-06T11:49:19.241Z,65.92
2018-09-06T11:50:19.151Z,66.02
2018-09-06T11:51:19.060Z,66.99
2018-09-06T11:52:18.957Z,66.20
2018-09-06T11:53:18.866Z,66.69
2018-09-06T11:54:18.778Z,66.34
2018-09-06T11:55:18.684Z,65.56
2018-09-06T11:56:18.593Z,64.82
2018-09-06T11:57:18.506Z,64.50
2018-09-06T11:58:18.411Z,65.63
2018-09-06T11:59:18.322Z,65.27
2018-09-06T12:00:18.231Z,64.88
2018-09-06T12:01:18.139Z,65.08
2018-09-06T12:02:18.048Z,64.82
2018-09-06T12:03:17.946Z,64.23
2018-09-06T12:04:17.855Z,64.40
2018-09-06T12:05:17.763Z,64.65
2018-09-06T12:06:17.855Z,64.85
2018-09-06T12:07:17.582Z,65.34
2018-09-06T12:08:17.495Z,65.11
2018-09-06T12:09:17.400Z,65.34
2018-09-06T12:10:17.310Z,66.92
2018-09-06T12:11:17.219Z,67.53
2018-09-06T12:12:17.128Z,66.20
2018-09-06T12:13:17.037Z,64.95
2018-09-06T12:14:16.935Z,65.05
2018-09-06T12:15:16.843Z,64.85
2018-09-06T12:16:16.752Z,65.08
2018-09-06T12:17:16.662Z,64.69
2018-09-06T12:18:16.570Z,64.40
2018-09-06T12:19:16.485Z,64.11
2018-09-06T12:20:16.388Z,63.53
2018-09-06T12:21:16.299Z,64.37
2018-09-06T12:22:16.207Z,64.59
2018-09-06T12:23:16.105Z,63.62
2018-09-06T12:24:16.017Z,63.72
2018-09-06T12:25:16.003Z,64.01
2018-09-06T12:26:15.836Z,63.53
2018-09-06T12:27:15.741Z,62.95
2018-09-06T12:28:15.650Z,62.26
2018-09-06T12:29:15.562Z,62.55
2018-09-06T12:30:15.469Z,62.36
2018-09-06T12:31:15.378Z,62.68
2018-09-06T12:32:15.288Z,62.39
2018-09-06T12:33:15.237Z,62.13
2018-09-06T12:34:15.106Z,61.32
2018-09-06T12:35:15.003Z,61.19
2018-09-06T12:36:14.912Z,61.39
2018-09-06T12:37:14.821Z,61.68
2018-09-06T12:38:14.731Z,62.04
2018-09-06T12:39:14.639Z,62.26
2018-09-06T12:40:14.548Z,61.39
2018-09-06T12:41:14.457Z,61.68
2018-09-06T12:42:14.366Z,62.04
2018-09-06T12:43:14.277Z,61.94
2018-09-06T12:44:14.185Z,63.01
2018-09-06T12:45:14.095Z,61.94
2018-09-06T12:46:14.003Z,61.29
2018-09-06T12:47:13.901Z,60.55
2018-09-06T12:48:13.813Z,60.23
2018-09-06T12:49:13.718Z,61.19
2018-09-06T12:50:13.629Z,61.19
2018-09-06T12:51:13.536Z,61.22
2018-09-06T12:52:13.447Z,61.22
2018-09-06T12:53:13.357Z,60.06
2018-09-06T12:54:13.271Z,60.25